createdAt,value
2018-09-14T00:00:17.540Z,10.17
2018-09-14T00:02:44.964Z,10.16
2018-09-14T00:05:12.580Z,10.11
2018-09-14T00:08:43.042Z,10.09
2018-09-14T00:11:10.726Z,10.05
2018-09-14T00:13:38.322Z,10.01
2018-09-14T00:16:05.798Z,9.98
2018-09-14T00:18:33.299Z,9.95
2018-09-14T00:21:00.771Z,9.92
2018-09-14T00:23:28.226Z,9.86
2018-09-14T00:25:55.942Z,9.81
2018-09-14T00:28:23.580Z,9.77
2018-09-14T00:30:51.100Z,9.74
2018-09-14T00:33:18.690Z,9.72
2018-09-14T00:35:46.217Z,9.69
2018-09-14T00:38:13.708Z,9.65
2018-09-14T00:40:41.324Z,9.62
2018-09-14T00:43:08.820Z,9.57
2018-09-14T00:45:36.297Z,9.54
2018-09-14T00:48:04.018Z,9.50
2018-09-14T00:50:31.476Z,9.49
2018-09-14T00:52:58.949Z,9.46
2018-09-14T00:55:26.633Z,9.44
2018-09-14T00:57:54.111Z,9.41
2018-09-14T01:00:21.719Z,9.39
2018-09-14T01:02:49.462Z,9.36
2018-09-14T01:05:16.934Z,9.33
2018-09-14T01:07:44.391Z,9.28
2018-09-14T01:10:12.144Z,9.25
2018-09-14T01:12:39.623Z,9.21
2018-09-14T01:15:38.200Z,9.17
2018-09-14T01:18:05.702Z,9.13
2018-09-14T01:20:33.205Z,9.10
2018-09-14T01:23:00.915Z,9.07
2018-09-14T01:25:28.428Z,9.05
2018-09-14T01:27:55.901Z,9.05
2018-09-14T01:30:23.473Z,9.01
2018-09-14T01:32:50.893Z,8.99
2018-09-14T01:35:23.893Z,8.96
2018-09-14T01:37:51.573Z,8.94
2018-09-14T01:40:19.037Z,8.90
2018-09-14T01:42:46.474Z,8.88
2018-09-14T01:45:14.085Z,8.86
2018-09-14T01:47:41.614Z,8.83
2018-09-14T01:50:09.080Z,8.80
2018-09-14T01:52:36.541Z,8.76
2018-09-14T01:55:04.517Z,8.71
2018-09-14T01:57:32.066Z,8.71
2018-09-14T01:59:59.696Z,8.35
2018-09-14T02:02:27.192Z,8.62
2018-09-14T02:04:55.159Z,8.58
2018-09-14T02:07:22.861Z,8.56
2018-09-14T02:09:50.303Z,8.53
2018-09-14T02:12:17.976Z,8.50
2018-09-14T02:14:45.880Z,8.48
2018-09-14T02:17:13.681Z,8.47
2018-09-14T02:19:41.242Z,8.43
2018-09-14T02:22:09.068Z,8.39
2018-09-14T02:24:36.502Z,8.37
2018-09-14T02:27:04.058Z,8.35
2018-09-14T02:30:02.276Z,8.29
2018-09-14T02:32:29.758Z,8.21
2018-09-14T02:34:57.240Z,8.18
2018-09-14T02:37:25.839Z,8.15
2018-09-14T02:39:53.432Z,8.13
2018-09-14T02:42:20.832Z,8.11
2018-09-14T02:44:48.459Z,8.10
2018-09-14T02:47:15.996Z,8.09
2018-09-14T02:49:43.412Z,8.07
2018-09-14T02:52:11.253Z,8.05
2018-09-14T02:54:38.842Z,8.04
2018-09-14T02:57:06.308Z,8.01
2018-09-14T02:59:33.884Z,8.00
2018-09-14T03:02:01.503Z,7.94
2018-09-14T03:04:28.999Z,7.92
2018-09-14T03:06:56.636Z,7.90
2018-09-14T03:09:24.165Z,7.88
2018-09-14T03:11:51.613Z,7.87
2018-09-14T03:14:19.259Z,7.87
2018-09-14T03:16:46.763Z,7.85
2018-09-14T03:19:14.538Z,7.84
2018-09-14T03:21:42.083Z,7.81
2018-09-14T03:24:09.512Z,7.80
2018-09-14T03:26:37.065Z,7.76
2018-09-14T03:29:04.782Z,7.72
2018-09-14T03:31:32.232Z,7.69
2018-09-14T03:33:59.764Z,7.68
2018-09-14T03:36:27.643Z,7.66
2018-09-14T03:38:55.081Z,7.65
2018-09-14T03:41:22.566Z,7.64
2018-09-14T03:43:50.206Z,7.64
2018-09-14T03:46:17.688Z,7.63
2018-09-14T03:48:45.125Z,7.63
2018-09-14T03:51:12.969Z,7.64
2018-09-14T03:53:40.444Z,7.63
2018-09-14T03:56:07.871Z,7.61
2018-09-14T03:58:35.514Z,7.61
2018-09-14T04:01:03.024Z,7.62
2018-09-14T04:03:30.484Z,7.62
2018-09-14T04:05:58.137Z,7.61
2018-09-14T04:08:25.681Z,7.60
2018-09-14T04:10:53.178Z,7.58
2018-09-14T04:13:20.925Z,7.58
2018-09-14T04:15:48.480Z,7.58
2018-09-14T04:18:15.906Z,7.57
2018-09-14T04:20:43.640Z,7.55
2018-09-14T04:23:11.099Z,7.54
2018-09-14T04:25:38.572Z,7.55
2018-09-14T04:28:06.171Z,7.56
2018-09-14T04:31:36.326Z,7.59
2018-09-14T04:34:04.092Z,7.61
2018-09-14T04:36:31.542Z,7.63
2018-09-14T04:38:59.005Z,7.64
2018-09-14T04:41:26.606Z,7.68
2018-09-14T04:43:54.315Z,7.71
2018-09-14T04:46:21.752Z,7.74
2018-09-14T04:48:49.416Z,7.78
2018-09-14T04:51:16.946Z,7.81
2018-09-14T04:53:44.417Z,7.87
2018-09-14T04:56:12.041Z,7.91
2018-09-14T04:58:39.519Z,7.94
2018-09-14T05:01:06.918Z,7.98
2018-09-14T05:03:34.643Z,8.02
2018-09-14T05:06:02.173Z,8.07
2018-09-14T05:08:29.674Z,8.12
2018-09-14T05:10:57.374Z,8.15
2018-09-14T05:13:24.878Z,8.18
2018-09-14T05:15:52.309Z,8.23
2018-09-14T05:18:20.160Z,8.28
2018-09-14T05:20:48.011Z,8.32
2018-09-14T05:23:15.502Z,8.35
2018-09-14T05:25:43.148Z,8.39
2018-09-14T05:28:10.595Z,8.41
2018-09-14T05:30:38.133Z,8.42
2018-09-14T05:33:05.929Z,8.44
2018-09-14T05:35:33.460Z,8.48
2018-09-14T05:38:00.881Z,8.52
2018-09-14T05:40:28.573Z,8.57
2018-09-14T05:42:56.147Z,8.67
2018-09-14T05:45:23.584Z,8.74
2018-09-14T05:47:51.118Z,8.84
2018-09-14T05:50:18.578Z,8.96
2018-09-14T05:52:46.030Z,9.09
2018-09-14T05:55:13.701Z,9.19
2018-09-14T05:57:41.145Z,9.29
2018-09-14T06:00:08.652Z,9.36
2018-09-14T06:02:36.480Z,9.43
2018-09-14T06:05:04.493Z,9.49
2018-09-14T06:07:32.005Z,9.57
2018-09-14T06:10:00.095Z,9.64
2018-09-14T06:12:27.511Z,9.75
2018-09-14T06:14:54.965Z,9.84
2018-09-14T06:17:22.634Z,9.92
2018-09-14T06:19:50.094Z,10.03
2018-09-14T06:22:17.809Z,10.12
2018-09-14T06:24:45.490Z,10.22
2018-09-14T06:27:13.004Z,10.32
2018-09-14T06:29:40.386Z,10.40
2018-09-14T06:32:07.947Z,10.48
2018-09-14T06:34:35.515Z,10.53
2018-09-14T06:37:03.019Z,10.57
2018-09-14T06:39:30.699Z,10.62
2018-09-14T06:41:58.205Z,10.69
2018-09-14T06:44:25.649Z,10.75
2018-09-14T06:46:53.291Z,10.83
2018-09-14T06:49:20.845Z,10.95
2018-09-14T06:51:48.332Z,11.06
2018-09-14T06:54:16.015Z,11.15
2018-09-14T06:56:43.559Z,11.27
2018-09-14T06:59:11.065Z,11.37
2018-09-14T07:01:38.885Z,11.47
2018-09-14T07:04:06.420Z,11.56
2018-09-14T07:06:33.950Z,11.66
2018-09-14T07:09:01.686Z,11.73
2018-09-14T07:11:29.152Z,11.82
2018-09-14T07:13:56.660Z,11.92
2018-09-14T07:16:24.238Z,12.04
2018-09-14T07:21:25.951Z,12.28
2018-09-14T07:23:53.646Z,12.41
2018-09-14T07:26:21.121Z,12.55
2018-09-14T07:28:48.759Z,12.65
2018-09-14T07:31:16.217Z,12.75
2018-09-14T07:33:43.916Z,12.86
2018-09-14T07:36:11.610Z,12.93
2018-09-14T07:38:39.127Z,13.02
2018-09-14T07:41:06.820Z,13.07
2018-09-14T07:43:34.491Z,13.14
2018-09-14T07:46:01.971Z,13.18
2018-09-14T07:48:29.478Z,12.94
2018-09-14T07:50:57.153Z,13.29
2018-09-14T07:53:24.659Z,13.33
2018-09-14T07:55:52.332Z,13.36
2018-09-14T07:58:20.136Z,13.39
2018-09-14T08:00:47.606Z,13.42
2018-09-14T08:03:15.179Z,13.45
2018-09-14T08:05:42.870Z,13.48
2018-09-14T08:08:10.472Z,13.50
2018-09-14T08:10:37.971Z,13.50
2018-09-14T08:13:05.801Z,13.50
2018-09-14T08:15:33.354Z,13.52
2018-09-14T08:18:00.905Z,13.53
2018-09-14T08:20:28.489Z,13.57
2018-09-14T08:22:55.927Z,13.61
2018-09-14T08:25:23.693Z,13.65
2018-09-14T08:27:51.290Z,13.70
2018-09-14T08:30:18.755Z,13.75
2018-09-14T08:32:46.474Z,13.79
2018-09-14T08:35:14.260Z,13.83
2018-09-14T08:37:41.887Z,13.86
2018-09-14T08:40:09.357Z,13.89
2018-09-14T08:42:37.225Z,13.91
2018-09-14T08:45:04.896Z,13.95
2018-09-14T08:47:32.462Z,13.99
2018-09-14T08:50:00.070Z,14.05
2018-09-14T08:52:27.571Z,14.12
2018-09-14T08:54:55.088Z,14.16
2018-09-14T08:57:22.806Z,14.21
2018-09-14T08:59:50.292Z,14.25
2018-09-14T09:02:17.763Z,14.29
2018-09-14T09:04:45.433Z,14.32
2018-09-14T09:07:12.947Z,14.37
2018-09-14T09:09:40.350Z,14.45
2018-09-14T09:12:08.109Z,14.53
2018-09-14T09:14:35.584Z,14.56
2018-09-14T09:17:03.049Z,14.57
2018-09-14T09:19:30.713Z,14.56
2018-09-14T09:21:58.270Z,14.55
2018-09-14T09:24:25.709Z,14.55
2018-09-14T09:26:53.526Z,14.57
2018-09-14T09:29:21.000Z,14.57
2018-09-14T09:31:48.436Z,14.60
2018-09-14T09:34:16.163Z,14.63
2018-09-14T09:36:43.670Z,14.64
2018-09-14T09:39:12.245Z,14.68
2018-09-14T09:41:40.543Z,14.69
2018-09-14T09:44:08.018Z,14.69
2018-09-14T09:46:35.684Z,14.69
2018-09-14T09:49:03.346Z,14.68
2018-09-14T09:51:30.825Z,14.68
2018-09-14T09:53:58.323Z,14.70
2018-09-14T09:56:26.113Z,14.70
2018-09-14T09:58:53.572Z,14.74
2018-09-14T10:01:26.625Z,14.76
2018-09-14T10:03:59.789Z,14.79
2018-09-14T10:06:27.389Z,14.83
2018-09-14T10:08:55.808Z,14.85
2018-09-14T10:11:23.461Z,14.88
2018-09-14T10:13:51.213Z,14.88
2018-09-14T10:16:18.713Z,14.88
2018-09-14T10:18:46.152Z,14.86
2018-09-14T10:21:13.793Z,14.87
2018-09-14T10:23:41.334Z,14.85
2018-09-14T10:26:08.799Z,14.83
2018-09-14T10:28:36.866Z,14.80
2018-09-14T10:31:04.356Z,14.79
2018-09-14T10:33:31.862Z,14.75
2018-09-14T10:35:59.384Z,14.73
2018-09-14T10:38:26.905Z,14.72
2018-09-14T10:40:54.386Z,14.70
2018-09-14T10:43:22.221Z,14.69
2018-09-14T10:45:49.709Z,14.71
2018-09-14T10:48:17.302Z,14.70
2018-09-14T10:50:44.952Z,14.69
2018-09-14T10:53:12.380Z,14.70
2018-09-14T10:55:39.897Z,14.73
2018-09-14T10:58:07.564Z,14.73
2018-09-14T11:00:35.100Z,14.71
2018-09-14T11:03:02.528Z,14.70
2018-09-14T11:05:30.253Z,14.70
2018-09-14T11:07:57.691Z,14.68
2018-09-14T11:10:25.369Z,14.66
2018-09-14T11:12:53.055Z,14.63
2018-09-14T11:15:20.565Z,14.63
2018-09-14T11:17:48.070Z,14.62
2018-09-14T11:20:15.765Z,14.62
2018-09-14T11:22:43.341Z,14.61
2018-09-14T11:25:11.008Z,14.64
2018-09-14T11:27:38.567Z,14.67
2018-09-14T11:30:06.864Z,14.73
2018-09-14T11:36:04.803Z,14.78
2018-09-14T11:38:32.487Z,14.77
2018-09-14T11:40:59.822Z,14.77
2018-09-14T11:43:27.323Z,14.76
2018-09-14T11:45:54.865Z,14.77
2018-09-14T11:48:22.314Z,14.76
2018-09-14T11:50:49.981Z,14.75
2018-09-14T11:53:17.428Z,14.76
2018-09-14T11:55:44.936Z,14.74
2018-09-14T11:58:12.525Z,14.74
2018-09-14T12:00:40.003Z,14.73
2018-09-14T12:03:07.443Z,14.73
2018-09-14T12:05:35.118Z,14.79
2018-09-14T12:08:02.578Z,14.80
2018-09-14T12:10:30.065Z,14.81
2018-09-14T12:12:57.747Z,14.84
2018-09-14T12:15:25.189Z,14.87
2018-09-14T12:17:52.636Z,14.91
2018-09-14T12:20:20.295Z,14.96
2018-09-14T12:22:47.717Z,14.98
2018-09-14T12:25:15.156Z,15.03
2018-09-14T12:27:42.871Z,15.14
2018-09-14T12:30:41.169Z,15.24
2018-09-14T12:33:08.914Z,15.40
2018-09-14T12:35:36.399Z,15.54
2018-09-14T12:38:03.872Z,15.64
2018-09-14T12:40:31.645Z,15.69
2018-09-14T12:42:59.081Z,15.76
2018-09-14T12:45:26.498Z,15.83
2018-09-14T12:47:54.216Z,15.88
2018-09-14T12:50:28.266Z,15.89
2018-09-14T12:52:55.952Z,15.89
2018-09-14T12:55:23.530Z,15.86
2018-09-14T12:57:50.936Z,15.84
2018-09-14T13:00:18.580Z,15.85
2018-09-14T13:02:46.058Z,15.90
2018-09-14T13:05:13.511Z,15.97
2018-09-14T13:07:41.149Z,16.05
2018-09-14T13:10:08.664Z,16.13
2018-09-14T13:12:36.101Z,16.15
2018-09-14T13:15:03.866Z,16.10
2018-09-14T13:17:31.301Z,16.10
2018-09-14T13:19:58.740Z,16.14
2018-09-14T13:22:26.424Z,16.18
2018-09-14T13:24:53.874Z,16.25
2018-09-14T13:27:21.473Z,16.33
2018-09-14T13:29:49.244Z,16.35
2018-09-14T13:32:17.026Z,16.33
2018-09-14T13:34:44.458Z,16.30
2018-09-14T13:37:12.143Z,15.98
2018-09-14T13:39:39.568Z,16.23
2018-09-14T13:42:07.190Z,16.19
2018-09-14T13:44:34.940Z,16.17
2018-09-14T13:47:02.472Z,16.17
2018-09-14T13:49:29.958Z,16.14
2018-09-14T13:51:57.551Z,16.10
2018-09-14T13:54:25.024Z,16.09
2018-09-14T13:56:52.528Z,16.07
2018-09-14T13:59:20.126Z,16.03
2018-09-14T14:01:47.606Z,16.01
2018-09-14T14:04:15.051Z,15.93
2018-09-14T14:06:42.720Z,15.91
2018-09-14T14:09:11.451Z,15.93
2018-09-14T14:11:38.941Z,15.91
2018-09-14T14:14:06.760Z,15.91
2018-09-14T14:16:34.224Z,15.90
2018-09-14T14:22:32.125Z,15.98
2018-09-14T14:24:59.621Z,16.01
2018-09-14T14:27:27.039Z,16.01
2018-09-14T14:29:54.791Z,15.99
2018-09-14T14:32:22.668Z,15.98
2018-09-14T14:34:50.193Z,15.95
2018-09-14T14:37:17.844Z,15.94
2018-09-14T14:39:45.424Z,15.95
2018-09-14T14:42:12.839Z,15.92
2018-09-14T14:44:40.460Z,15.91
2018-09-14T14:47:08.004Z,15.93
2018-09-14T14:49:35.495Z,15.96
2018-09-14T14:52:03.180Z,15.97
2018-09-14T14:54:30.602Z,15.98
2018-09-14T14:56:58.058Z,15.97
2018-09-14T14:59:25.688Z,15.95
2018-09-14T15:01:53.154Z,15.91
2018-09-14T15:04:20.607Z,15.90
2018-09-14T15:06:48.274Z,15.88
2018-09-14T15:09:15.753Z,15.85
2018-09-14T15:11:43.235Z,15.79
2018-09-14T15:14:11.004Z,15.78
2018-09-14T15:19:09.109Z,15.79
2018-09-14T15:21:36.779Z,15.78
2018-09-14T15:24:04.223Z,15.74
2018-09-14T15:26:31.683Z,15.74
2018-09-14T15:28:59.416Z,15.75
2018-09-14T15:31:26.876Z,15.74
2018-09-14T15:33:54.445Z,15.76
2018-09-14T15:36:22.029Z,15.69
2018-09-14T15:38:49.485Z,15.65
2018-09-14T15:41:17.018Z,15.60
2018-09-14T15:43:44.709Z,15.56
2018-09-14T15:46:12.141Z,15.48
2018-09-14T15:48:39.692Z,15.46
2018-09-14T15:51:07.328Z,15.46
2018-09-14T15:53:34.809Z,15.42
2018-09-14T15:56:02.277Z,15.40
2018-09-14T15:58:29.696Z,15.39
2018-09-14T16:00:57.137Z,15.40
2018-09-14T16:03:24.629Z,15.41
2018-09-14T16:05:52.316Z,15.41
2018-09-14T16:08:19.798Z,15.40
2018-09-14T16:10:47.279Z,15.37
2018-09-14T16:13:15.032Z,15.34
2018-09-14T16:15:42.778Z,15.34
2018-09-14T16:18:10.155Z,15.33
2018-09-14T16:20:37.844Z,15.27
2018-09-14T16:23:05.305Z,15.19
2018-09-14T16:25:32.863Z,15.15
2018-09-14T16:28:00.507Z,15.09
2018-09-14T16:30:27.938Z,15.07
2018-09-14T16:32:55.414Z,15.08
2018-09-14T16:35:23.134Z,15.08
2018-09-14T16:37:50.629Z,15.05
2018-09-14T16:40:18.111Z,14.97
2018-09-14T16:42:45.624Z,14.91
2018-09-14T16:45:13.089Z,14.87
2018-09-14T16:47:40.535Z,14.83
2018-09-14T16:50:08.104Z,14.80
2018-09-14T16:52:35.589Z,14.74
2018-09-14T16:55:03.046Z,14.67
2018-09-14T16:57:30.635Z,14.60
2018-09-14T16:59:58.104Z,14.60
2018-09-14T17:02:25.544Z,14.59
2018-09-14T17:04:53.063Z,14.57
2018-09-14T17:07:20.538Z,14.55
2018-09-14T17:09:48.020Z,14.54
2018-09-14T17:12:15.522Z,14.51
2018-09-14T17:14:42.990Z,14.47
2018-09-14T17:17:10.502Z,14.41
2018-09-14T17:19:38.063Z,14.36
2018-09-14T17:22:05.595Z,14.32
2018-09-14T17:24:33.022Z,14.30
2018-09-14T17:27:00.737Z,14.28
2018-09-14T17:29:28.224Z,14.26
2018-09-14T17:31:55.719Z,14.25
2018-09-14T17:34:23.463Z,14.20
2018-09-14T17:36:51.329Z,14.15
2018-09-14T17:39:18.820Z,14.10
2018-09-14T17:41:46.543Z,14.05
2018-09-14T17:44:14.077Z,14.00
2018-09-14T17:46:41.542Z,13.95
2018-09-14T17:49:09.224Z,13.94
2018-09-14T17:51:36.636Z,13.92
2018-09-14T17:54:04.121Z,13.88
2018-09-14T17:56:31.792Z,13.84
2018-09-14T17:58:59.316Z,13.82
2018-09-14T18:01:26.748Z,13.79
2018-09-14T18:03:54.374Z,13.75
2018-09-14T18:06:21.806Z,13.72
2018-09-14T18:08:49.498Z,13.71
2018-09-14T18:11:17.149Z,13.66
2018-09-14T18:13:44.844Z,13.56
2018-09-14T18:16:12.281Z,13.49
2018-09-14T18:18:39.956Z,13.42
2018-09-14T18:21:07.602Z,13.38
2018-09-14T18:23:35.087Z,13.31
2018-09-14T18:26:02.787Z,13.22
2018-09-14T18:28:30.229Z,13.16
2018-09-14T18:30:57.788Z,13.13
2018-09-14T18:33:25.368Z,13.10
2018-09-14T18:35:52.843Z,13.04
2018-09-14T18:38:20.516Z,12.99
2018-09-14T18:40:48.165Z,12.95
2018-09-14T18:43:15.567Z,12.89
2018-09-14T18:45:43.168Z,12.82
2018-09-14T18:48:10.880Z,12.77
2018-09-14T18:50:38.275Z,12.72
2018-09-14T18:53:05.955Z,12.74
2018-09-14T18:55:33.498Z,12.75
2018-09-14T18:58:01.033Z,12.73
2018-09-14T19:00:28.548Z,12.73
2018-09-14T19:02:56.342Z,12.72
2018-09-14T19:05:23.899Z,12.68
2018-09-14T19:07:51.359Z,12.66
2018-09-14T19:10:18.856Z,12.67
2018-09-14T19:12:46.332Z,12.67
2018-09-14T19:15:13.813Z,12.66
2018-09-14T19:17:41.364Z,12.66
2018-09-14T19:20:09.012Z,12.64
2018-09-14T19:22:36.430Z,12.62
2018-09-14T19:25:03.931Z,12.60
2018-09-14T19:27:31.383Z,12.58
2018-09-14T19:29:58.852Z,12.56
2018-09-14T19:32:26.290Z,12.53
2018-09-14T19:34:53.709Z,12.48
2018-09-14T19:37:21.190Z,12.44
2018-09-14T19:39:48.881Z,12.40
2018-09-14T19:42:16.334Z,12.38
2018-09-14T19:44:43.818Z,12.35
2018-09-14T19:47:11.269Z,12.32
2018-09-14T19:49:38.743Z,12.29
2018-09-14T19:52:06.136Z,12.25
2018-09-14T19:54:33.672Z,12.20
2018-09-14T19:57:01.161Z,12.17
2018-09-14T19:59:28.581Z,12.13
2018-09-14T20:01:56.347Z,12.10
2018-09-14T20:04:23.806Z,12.06
2018-09-14T20:06:51.305Z,12.03
2018-09-14T20:09:18.781Z,12.00
2018-09-14T20:11:46.330Z,11.98
2018-09-14T20:14:13.734Z,11.95
2018-09-14T20:16:41.251Z,11.92
2018-09-14T20:19:08.824Z,11.89
2018-09-14T20:21:36.302Z,11.87
2018-09-14T20:24:03.945Z,11.83
2018-09-14T20:26:31.477Z,11.79
2018-09-14T20:28:58.956Z,11.76
2018-09-14T20:31:26.493Z,11.71
2018-09-14T20:33:53.893Z,11.68
2018-09-14T20:36:21.416Z,11.66
2018-09-14T20:38:49.096Z,11.65
2018-09-14T20:41:16.717Z,11.63
2018-09-14T20:43:44.147Z,11.63
2018-09-14T20:46:11.696Z,11.62
2018-09-14T20:48:39.339Z,11.61
2018-09-14T20:51:06.794Z,11.60
2018-09-14T20:53:34.465Z,11.58
2018-09-14T20:56:01.880Z,11.56
2018-09-14T20:58:29.411Z,11.54
2018-09-14T21:00:57.056Z,11.52
2018-09-14T21:03:24.475Z,11.49
2018-09-14T21:05:51.967Z,11.38
2018-09-14T21:08:19.579Z,11.44
2018-09-14T21:10:47.081Z,11.40
2018-09-14T21:13:14.518Z,11.38
2018-09-14T21:15:42.132Z,11.37
2018-09-14T21:18:09.641Z,11.34
2018-09-14T21:20:37.146Z,11.30
2018-09-14T21:23:04.856Z,11.28
2018-09-14T21:25:32.253Z,11.24
2018-09-14T21:27:59.722Z,11.21
2018-09-14T21:30:27.458Z,11.18
2018-09-14T21:32:54.865Z,11.14
2018-09-14T21:35:22.360Z,10.77
2018-09-14T21:37:49.958Z,11.07
2018-09-14T21:40:17.474Z,11.05
2018-09-14T21:42:45.122Z,11.03
2018-09-14T21:45:12.780Z,11.00
2018-09-14T21:47:40.245Z,10.96
2018-09-14T21:50:07.711Z,10.90
2018-09-14T21:52:35.300Z,10.85
2018-09-14T21:55:02.874Z,10.80
2018-09-14T21:57:30.389Z,10.76
2018-09-14T21:59:57.995Z,10.73
2018-09-14T22:02:25.494Z,10.70
2018-09-14T22:04:52.998Z,10.66
2018-09-14T22:07:20.610Z,10.62
2018-09-14T22:09:48.050Z,10.58
2018-09-14T22:12:15.564Z,10.56
2018-09-14T22:14:43.298Z,10.53
2018-09-14T22:17:10.744Z,10.50
2018-09-14T22:19:38.245Z,10.46
2018-09-14T22:22:05.917Z,10.44
2018-09-14T22:24:33.316Z,10.42
2018-09-14T22:27:00.713Z,10.39
2018-09-14T22:29:28.350Z,10.30
2018-09-14T22:31:55.783Z,10.34
2018-09-14T22:34:23.220Z,10.29
2018-09-14T22:36:50.796Z,10.26
2018-09-14T22:39:18.376Z,10.24
2018-09-14T22:41:45.825Z,10.21
2018-09-14T22:44:13.700Z,10.17
2018-09-14T22:46:41.310Z,10.16
2018-09-14T22:49:08.731Z,10.13
2018-09-14T22:51:36.300Z,10.12
2018-09-14T22:54:03.831Z,10.09
2018-09-14T22:56:31.305Z,10.07
2018-09-14T22:58:59.081Z,10.05
2018-09-14T23:01:26.522Z,10.01
2018-09-14T23:03:53.926Z,9.96
2018-09-14T23:06:21.602Z,9.93
2018-09-14T23:08:49.010Z,9.91
2018-09-14T23:11:16.497Z,9.88
2018-09-14T23:13:44.176Z,9.85
2018-09-14T23:16:11.651Z,9.82
2018-09-14T23:18:39.111Z,9.80
2018-09-14T23:21:07.038Z,9.78
2018-09-14T23:23:34.446Z,9.75
2018-09-14T23:26:05.377Z,9.73
2018-09-14T23:28:33.092Z,9.70
2018-09-14T23:31:00.532Z,9.67
2018-09-14T23:33:28.006Z,9.61
2018-09-14T23:35:55.700Z,9.55
2018-09-14T23:38:23.120Z,9.53
2018-09-14T23:40:50.639Z,9.51
2018-09-14T23:43:18.261Z,9.49
2018-09-14T23:45:45.822Z,9.49
2018-09-14T23:48:13.268Z,9.46
2018-09-14T23:50:41.041Z,9.45
2018-09-14T23:53:08.476Z,9.43
2018-09-14T23:55:35.908Z,9.41
2018-09-14T23:58:03.628Z,9.40
